createdAt,value
2023-03-20T00:01:17.010Z,4.47
2023-03-20T00:03:44.215Z,4.65
2023-03-20T00:06:17.577Z,4.88
2023-03-20T00:08:47.815Z,5.80
2023-03-20T00:11:21.943Z,5.00
2023-03-20T00:13:49.003Z,5.10
2023-03-20T00:16:16.186Z,6.10
2023-03-20T00:18:43.252Z,6.18
2023-03-20T00:21:12.384Z,4.32
2023-03-20T00:23:39.438Z,4.43
2023-03-20T00:26:06.623Z,4.50
2023-03-20T00:28:40.901Z,4.35
2023-03-20T00:31:24.523Z,3.75
2023-03-20T00:33:51.947Z,3.80
2023-03-20T00:36:19.052Z,3.50
2023-03-20T00:38:46.235Z,3.80
2023-03-20T00:41:16.051Z,3.40
2023-03-20T00:43:43.535Z,4.20
2023-03-20T00:46:13.110Z,3.72
2023-03-20T00:48:40.563Z,4.72
2023-03-20T00:51:07.839Z,4.18
2023-03-20T00:53:34.897Z,4.57
2023-03-20T00:56:01.939Z,4.65
2023-03-20T00:58:29.036Z,5.30
2023-03-20T01:00:56.137Z,4.57
2023-03-20T01:03:24.798Z,4.95
2023-03-20T01:05:51.973Z,4.47
2023-03-20T01:08:19.920Z,4.43
2023-03-20T01:10:47.278Z,6.22
2023-03-20T01:13:16.394Z,7.82
2023-03-20T01:15:43.459Z,18.98
2023-03-20T01:18:12.586Z,26.08
2023-03-20T01:20:39.722Z,30.73
2023-03-20T01:23:06.887Z,32.53
2023-03-20T01:25:34.140Z,37.27
2023-03-20T01:28:01.474Z,47.75
2023-03-20T01:30:29.554Z,51.90
2023-03-20T01:32:56.728Z,52.33
2023-03-20T01:35:24.643Z,44.25
2023-03-20T01:37:52.222Z,41.67
2023-03-20T01:40:27.146Z,45.50
2023-03-20T01:42:54.228Z,44.78
2023-03-20T01:45:22.676Z,45.70
2023-03-20T01:47:49.807Z,46.30
2023-03-20T01:50:22.214Z,48.65
2023-03-20T01:52:49.574Z,47.38
2023-03-20T01:55:16.747Z,48.35
2023-03-20T01:57:43.810Z,43.38
2023-03-20T02:00:11.766Z,47.38
2023-03-20T02:02:38.848Z,42.30
2023-03-20T02:05:07.594Z,45.95
2023-03-20T02:07:35.267Z,48.95
2023-03-20T02:10:03.324Z,45.42
2023-03-20T02:12:30.461Z,44.90
2023-03-20T02:14:58.677Z,46.45
2023-03-20T02:17:25.727Z,48.95
2023-03-20T02:19:57.099Z,48.60
2023-03-20T02:22:43.001Z,44.20
2023-03-20T02:25:15.692Z,44.25
2023-03-20T02:27:45.680Z,45.70
2023-03-20T02:30:19.917Z,43.38
2023-03-20T02:33:07.358Z,41.95
2023-03-20T02:35:34.760Z,44.45
2023-03-20T02:38:14.421Z,42.03
2023-03-20T02:40:50.862Z,42.58
2023-03-20T02:43:20.395Z,35.50
2023-03-20T02:46:06.125Z,32.70
2023-03-20T02:48:40.695Z,31.35
2023-03-20T02:51:11.453Z,28.52
2023-03-20T02:53:51.490Z,30.35
2023-03-20T02:56:37.489Z,29.17
2023-03-20T02:59:04.546Z,29.42
2023-03-20T03:01:33.235Z,29.25
2023-03-20T03:04:05.339Z,28.65
2023-03-20T03:06:33.069Z,27.90
2023-03-20T03:09:04.700Z,29.60
2023-03-20T03:11:33.898Z,26.85
2023-03-20T03:14:00.972Z,26.52
2023-03-20T03:16:29.184Z,26.33
2023-03-20T03:19:02.612Z,26.08
2023-03-20T03:21:30.384Z,26.37
2023-03-20T03:23:57.431Z,26.13
2023-03-20T03:26:25.856Z,24.60
2023-03-20T03:28:54.347Z,25.77
2023-03-20T03:31:21.944Z,26.25
2023-03-20T03:33:49.759Z,25.80
2023-03-20T03:36:23.725Z,24.70
2023-03-20T03:38:59.104Z,24.42
2023-03-20T03:41:26.161Z,25.63
2023-03-20T03:43:55.052Z,26.40
2023-03-20T03:46:26.731Z,24.63
2023-03-20T03:48:56.119Z,23.10
2023-03-20T03:51:27.046Z,23.15
2023-03-20T03:54:01.501Z,22.42
2023-03-20T03:56:29.008Z,23.20
2023-03-20T03:58:57.803Z,21.63
2023-03-20T04:01:25.655Z,23.33
2023-03-20T04:03:53.521Z,22.02
2023-03-20T04:06:20.796Z,22.17
2023-03-20T04:08:47.867Z,22.70
2023-03-20T04:11:18.917Z,20.50
2023-03-20T04:13:46.743Z,21.15
2023-03-20T04:16:14.294Z,20.48
2023-03-20T04:18:41.701Z,22.38
2023-03-20T04:21:08.909Z,21.65
2023-03-20T04:23:36.052Z,22.50
2023-03-20T04:26:03.618Z,21.33
2023-03-20T04:28:30.708Z,22.13
2023-03-20T04:30:58.449Z,20.58
2023-03-20T04:33:25.697Z,22.10
2023-03-20T04:35:52.856Z,20.85
2023-03-20T04:38:20.074Z,22.52
2023-03-20T04:40:47.350Z,21.77
2023-03-20T04:43:14.687Z,21.45
2023-03-20T04:45:41.990Z,21.10
2023-03-20T04:48:09.084Z,21.25
2023-03-20T04:50:36.144Z,21.65
2023-03-20T04:53:03.200Z,21.38
2023-03-20T04:55:30.269Z,20.25
2023-03-20T04:57:57.410Z,18.98
2023-03-20T05:00:24.558Z,21.05
2023-03-20T05:02:51.610Z,22.07
2023-03-20T05:05:18.751Z,21.65
2023-03-20T05:07:45.940Z,21.50
2023-03-20T05:10:13.047Z,20.23
2023-03-20T05:12:40.133Z,20.20
2023-03-20T05:15:07.482Z,19.95
2023-03-20T05:17:34.543Z,20.52
2023-03-20T05:20:01.588Z,20.23
2023-03-20T05:22:28.680Z,18.87
2023-03-20T05:24:55.780Z,18.52
2023-03-20T05:27:22.830Z,17.90
2023-03-20T05:29:49.953Z,18.73
2023-03-20T05:32:17.110Z,16.88
2023-03-20T05:34:44.170Z,19.77
2023-03-20T05:37:11.408Z,17.48
2023-03-20T05:39:38.514Z,18.23
2023-03-20T05:42:05.753Z,18.25
2023-03-20T05:44:32.829Z,17.08
2023-03-20T05:46:59.894Z,18.05
2023-03-20T05:49:26.952Z,16.77
2023-03-20T05:51:54.017Z,17.35
2023-03-20T05:54:21.094Z,16.95
2023-03-20T05:56:48.211Z,16.05
2023-03-20T05:59:15.364Z,15.77
2023-03-20T06:01:42.423Z,15.50
2023-03-20T06:04:09.513Z,18.02
2023-03-20T06:06:37.843Z,15.47
2023-03-20T06:09:05.274Z,14.60
2023-03-20T06:11:32.775Z,16.30
2023-03-20T06:14:00.230Z,15.45
2023-03-20T06:16:27.565Z,15.57
2023-03-20T06:18:56.514Z,14.43
2023-03-20T06:21:23.595Z,15.10
2023-03-20T06:23:50.715Z,14.82
2023-03-20T06:26:17.780Z,14.98
2023-03-20T06:28:44.886Z,15.30
2023-03-20T06:31:12.265Z,15.05
2023-03-20T06:33:40.200Z,15.75
2023-03-20T06:36:07.485Z,16.70
2023-03-20T06:38:34.554Z,14.67
2023-03-20T06:41:01.643Z,15.07
2023-03-20T06:43:28.700Z,15.57
2023-03-20T06:45:55.761Z,14.50
2023-03-20T06:48:22.868Z,14.95
2023-03-20T06:50:50.426Z,16.23
2023-03-20T06:53:17.494Z,13.82
2023-03-20T06:55:47.535Z,12.95
2023-03-20T06:58:14.635Z,10.47
2023-03-20T07:00:42.100Z,9.75
2023-03-20T07:03:10.054Z,8.63
2023-03-20T07:05:38.692Z,10.07
2023-03-20T07:08:07.259Z,9.98
2023-03-20T07:10:34.677Z,9.18
2023-03-20T07:13:01.841Z,8.50
2023-03-20T07:15:29.963Z,8.65
2023-03-20T07:17:57.251Z,8.13
2023-03-20T07:20:24.354Z,8.13
2023-03-20T07:22:51.479Z,7.83
2023-03-20T07:25:26.103Z,7.75
2023-03-20T07:27:59.147Z,7.90
2023-03-20T07:30:26.289Z,8.43
2023-03-20T07:32:53.493Z,7.80
2023-03-20T07:35:21.000Z,7.47
2023-03-20T07:37:48.094Z,8.07
2023-03-20T07:40:15.418Z,7.95
2023-03-20T07:42:42.495Z,7.70
2023-03-20T07:45:09.667Z,6.93
2023-03-20T07:47:36.846Z,7.72
2023-03-20T07:50:05.752Z,6.80
2023-03-20T07:52:34.801Z,7.05
2023-03-20T07:55:01.890Z,6.72
2023-03-20T07:57:28.977Z,6.57
2023-03-20T07:59:56.079Z,6.43
2023-03-20T08:02:23.137Z,6.03
2023-03-20T08:04:50.240Z,6.00
2023-03-20T08:07:17.430Z,5.65
2023-03-20T08:09:44.540Z,5.65
2023-03-20T08:12:11.623Z,6.00
2023-03-20T08:14:39.674Z,5.70
2023-03-20T08:17:15.052Z,6.50
2023-03-20T08:19:43.675Z,6.68
2023-03-20T08:22:11.009Z,6.82
2023-03-20T08:24:38.159Z,6.37
2023-03-20T08:27:05.287Z,7.22
2023-03-20T08:29:32.346Z,6.40
2023-03-20T08:31:59.540Z,6.47
2023-03-20T08:34:27.023Z,6.53
2023-03-20T08:36:54.070Z,6.47
2023-03-20T08:39:21.886Z,6.43
2023-03-20T08:41:49.071Z,5.90
2023-03-20T08:44:16.395Z,6.65
2023-03-20T08:46:44.768Z,6.35
2023-03-20T08:49:11.849Z,7.30
2023-03-20T08:51:38.954Z,5.95
2023-03-20T08:54:06.070Z,6.82
2023-03-20T08:56:33.150Z,6.30
2023-03-20T08:59:00.273Z,4.70
2023-03-20T09:01:41.785Z,3.97
2023-03-20T09:04:14.866Z,2.72
2023-03-20T09:06:42.085Z,2.83
2023-03-20T09:09:09.178Z,3.03
2023-03-20T09:11:36.745Z,2.97
2023-03-20T09:14:04.394Z,3.13
2023-03-20T09:16:31.609Z,3.10
2023-03-20T09:18:58.902Z,3.00
2023-03-20T09:21:26.063Z,2.42
2023-03-20T09:23:53.162Z,2.78
2023-03-20T09:26:20.430Z,2.53
2023-03-20T09:28:47.504Z,2.50
2023-03-20T09:31:14.651Z,2.70
2023-03-20T09:33:41.973Z,2.90
2023-03-20T09:36:11.476Z,2.75
2023-03-20T09:38:41.719Z,2.70
2023-03-20T09:41:13.209Z,2.95
2023-03-20T09:43:40.413Z,2.50
2023-03-20T09:46:16.702Z,2.97
2023-03-20T09:48:59.392Z,2.33
2023-03-20T09:51:32.750Z,2.70
2023-03-20T09:54:11.628Z,2.72
2023-03-20T09:56:38.737Z,2.80
2023-03-20T09:59:06.528Z,3.13
2023-03-20T10:01:52.776Z,4.05
2023-03-20T10:04:21.270Z,3.28
2023-03-20T10:06:48.455Z,3.60
2023-03-20T10:09:16.899Z,3.97
2023-03-20T10:11:50.361Z,3.50
2023-03-20T10:14:32.676Z,2.85
2023-03-20T10:17:35.322Z,2.88
2023-03-20T10:20:11.257Z,3.22
2023-03-20T10:22:43.442Z,3.22
2023-03-20T10:25:13.538Z,3.08
2023-03-20T10:27:41.569Z,3.08
2023-03-20T10:30:26.886Z,2.73
2023-03-20T10:33:00.770Z,3.40
2023-03-20T10:35:29.742Z,2.95
2023-03-20T10:37:59.864Z,2.80
2023-03-20T10:40:29.221Z,2.80
2023-03-20T10:43:03.964Z,3.15
2023-03-20T10:45:50.191Z,2.95
2023-03-20T10:48:21.718Z,2.80
2023-03-20T10:50:51.355Z,3.00
2023-03-20T10:53:26.043Z,2.53
2023-03-20T10:55:53.135Z,2.97
2023-03-20T10:58:20.424Z,2.58
2023-03-20T11:00:47.894Z,3.05
2023-03-20T11:03:21.427Z,2.72
2023-03-20T11:06:02.406Z,2.80
2023-03-20T11:08:36.864Z,2.90
2023-03-20T11:11:04.196Z,2.38
2023-03-20T11:13:39.159Z,3.15
2023-03-20T11:16:11.140Z,3.15
2023-03-20T11:18:38.403Z,2.47
2023-03-20T11:21:05.581Z,2.75
2023-03-20T11:23:35.675Z,3.03
2023-03-20T11:26:03.898Z,2.67
2023-03-20T11:28:32.417Z,2.47
2023-03-20T11:31:07.205Z,2.40
2023-03-20T11:33:34.969Z,2.78
2023-03-20T11:36:02.070Z,3.00
2023-03-20T11:38:29.185Z,3.00
2023-03-20T11:40:56.271Z,2.33
2023-03-20T11:43:24.152Z,2.80
2023-03-20T11:45:58.061Z,2.58
2023-03-20T11:48:38.267Z,3.13
2023-03-20T11:51:06.018Z,2.60
2023-03-20T11:53:34.565Z,3.20
2023-03-20T11:56:03.017Z,3.33
2023-03-20T11:58:30.117Z,2.80
2023-03-20T12:00:57.777Z,2.92
2023-03-20T12:03:37.314Z,2.78
2023-03-20T12:06:06.564Z,3.00
2023-03-20T12:08:33.644Z,3.30
2023-03-20T12:11:01.782Z,2.92
2023-03-20T12:13:33.312Z,2.55
2023-03-20T12:16:02.201Z,2.17
2023-03-20T12:18:39.485Z,2.80
2023-03-20T12:21:15.914Z,2.92
2023-03-20T12:23:53.708Z,3.35
2023-03-20T12:26:25.448Z,3.00
2023-03-20T12:28:54.374Z,2.72
2023-03-20T12:31:26.043Z,3.13
2023-03-20T12:34:05.869Z,3.93
2023-03-20T12:36:33.761Z,3.20
2023-03-20T12:39:02.559Z,3.60
2023-03-20T12:41:29.600Z,2.90
2023-03-20T12:44:15.316Z,3.40
2023-03-20T12:47:01.601Z,3.88
2023-03-20T12:49:44.086Z,3.22
2023-03-20T12:52:23.510Z,3.45
2023-03-20T12:54:57.074Z,3.10
2023-03-20T12:57:34.306Z,3.35
2023-03-20T13:00:20.208Z,2.92
2023-03-20T13:03:04.307Z,2.83
2023-03-20T13:05:34.383Z,2.90
2023-03-20T13:08:04.558Z,2.83
2023-03-20T13:10:36.000Z,2.67
2023-03-20T13:13:04.239Z,3.40
2023-03-20T13:15:50.133Z,3.20
2023-03-20T13:18:21.840Z,3.30
2023-03-20T13:20:48.969Z,3.40
2023-03-20T13:23:31.188Z,3.30
2023-03-20T13:26:01.111Z,2.55
2023-03-20T13:28:30.801Z,2.90
2023-03-20T13:31:00.611Z,2.60
2023-03-20T13:33:33.815Z,3.17
2023-03-20T13:36:03.906Z,2.90
2023-03-20T13:38:32.177Z,3.17
2023-03-20T13:41:00.106Z,3.40
2023-03-20T13:43:32.737Z,3.20
2023-03-20T13:46:08.688Z,3.85
2023-03-20T13:48:39.287Z,3.25
2023-03-20T13:51:27.254Z,3.63
2023-03-20T13:53:56.065Z,4.10
2023-03-20T13:56:38.652Z,4.30
2023-03-20T13:59:11.399Z,4.28
2023-03-20T14:01:41.447Z,5.93
2023-03-20T14:04:15.728Z,4.90
2023-03-20T14:06:50.404Z,5.00
2023-03-20T14:09:29.960Z,4.88
2023-03-20T14:11:57.888Z,7.22
2023-03-20T14:14:31.864Z,4.90
2023-03-20T14:17:14.201Z,8.30
2023-03-20T14:19:41.402Z,6.33
2023-03-20T14:22:08.476Z,6.30
2023-03-20T14:24:36.363Z,7.03
2023-03-20T14:27:03.511Z,6.10
2023-03-20T14:29:30.751Z,5.88
2023-03-20T14:32:20.989Z,5.65
2023-03-20T14:34:48.754Z,6.30
2023-03-20T14:37:31.170Z,6.37
2023-03-20T14:40:00.390Z,6.50
2023-03-20T14:42:46.214Z,6.50
2023-03-20T14:45:13.285Z,6.40
2023-03-20T14:47:45.202Z,7.07
2023-03-20T14:50:27.503Z,6.82
2023-03-20T14:53:11.194Z,6.70
2023-03-20T14:55:56.791Z,6.85
2023-03-20T14:58:36.079Z,7.00
2023-03-20T15:01:03.683Z,8.10
2023-03-20T15:03:31.006Z,7.03
2023-03-20T15:06:01.576Z,8.02
2023-03-20T15:08:30.111Z,8.52
2023-03-20T15:10:57.703Z,9.32
2023-03-20T15:13:24.860Z,8.30
2023-03-20T15:16:05.288Z,8.25
2023-03-20T15:18:32.398Z,7.90
2023-03-20T15:20:59.468Z,7.88
2023-03-20T15:23:26.589Z,7.40
2023-03-20T15:25:53.697Z,8.07
2023-03-20T15:28:24.423Z,7.72
2023-03-20T15:30:53.450Z,8.20
2023-03-20T15:33:22.216Z,8.40
2023-03-20T15:35:49.336Z,8.20
2023-03-20T15:38:16.906Z,8.60
2023-03-20T15:40:51.199Z,8.47
2023-03-20T15:43:22.836Z,15.25
2023-03-20T15:45:50.693Z,9.70
2023-03-20T15:48:18.968Z,10.82
2023-03-20T15:50:55.874Z,8.63
2023-03-20T15:53:44.585Z,8.90
2023-03-20T15:56:18.089Z,11.57
2023-03-20T15:58:45.753Z,7.65
2023-03-20T16:01:16.591Z,8.30
2023-03-20T16:03:43.661Z,9.38
2023-03-20T16:06:11.868Z,8.35
2023-03-20T16:08:39.127Z,7.65
2023-03-20T16:11:07.726Z,7.80
2023-03-20T16:13:38.895Z,8.10
2023-03-20T16:16:07.658Z,7.20
2023-03-20T16:18:36.500Z,7.05
2023-03-20T16:21:07.611Z,7.82
2023-03-20T16:23:41.610Z,7.10
2023-03-20T16:26:09.279Z,6.43
2023-03-20T16:28:36.751Z,6.03
2023-03-20T16:31:10.998Z,7.43
2023-03-20T16:33:38.718Z,7.63
2023-03-20T16:36:06.035Z,7.80
2023-03-20T16:38:34.090Z,8.57
2023-03-20T16:41:16.659Z,7.45
2023-03-20T16:43:46.318Z,6.20
2023-03-20T16:46:17.469Z,7.35
2023-03-20T16:48:44.561Z,6.53
2023-03-20T16:51:15.332Z,5.72
2023-03-20T16:53:42.857Z,7.35
2023-03-20T16:56:14.247Z,7.00
2023-03-20T16:58:42.620Z,5.68
2023-03-20T17:01:16.324Z,6.65
2023-03-20T17:03:48.185Z,7.55
2023-03-20T17:06:21.580Z,6.90
2023-03-20T17:08:55.442Z,6.18
2023-03-20T17:11:23.330Z,7.18
2023-03-20T17:13:50.487Z,6.35
2023-03-20T17:16:18.927Z,6.47
2023-03-20T17:18:54.057Z,6.50
2023-03-20T17:21:21.129Z,6.20
2023-03-20T17:23:48.200Z,5.67
2023-03-20T17:26:15.324Z,6.72
2023-03-20T17:28:42.584Z,6.40
2023-03-20T17:31:10.942Z,6.85
2023-03-20T17:33:38.020Z,6.55
2023-03-20T17:36:05.112Z,6.07
2023-03-20T17:38:32.464Z,6.40
2023-03-20T17:40:59.612Z,6.63
2023-03-20T17:43:26.701Z,6.93
2023-03-20T17:45:53.821Z,6.85
2023-03-20T17:48:21.304Z,6.88
2023-03-20T17:50:50.746Z,6.10
2023-03-20T17:53:19.255Z,6.82
2023-03-20T17:55:46.336Z,6.32
2023-03-20T17:58:21.710Z,6.13
2023-03-20T18:00:49.507Z,7.32
2023-03-20T18:03:18.038Z,6.70
2023-03-20T18:05:48.647Z,7.13
2023-03-20T18:08:16.668Z,6.78
2023-03-20T18:10:44.074Z,6.70
2023-03-20T18:13:11.287Z,7.38
2023-03-20T18:15:40.112Z,6.78
2023-03-20T18:18:08.533Z,6.82
2023-03-20T18:20:36.707Z,6.97
2023-03-20T18:23:03.988Z,6.47
2023-03-20T18:25:31.072Z,7.47
2023-03-20T18:27:58.984Z,6.72
2023-03-20T18:30:27.414Z,7.07
2023-03-20T18:32:54.532Z,7.93
2023-03-20T18:35:21.717Z,7.28
2023-03-20T18:37:48.758Z,7.65
2023-03-20T18:40:17.425Z,8.25
2023-03-20T18:42:44.480Z,7.22
2023-03-20T18:45:11.826Z,8.65
2023-03-20T18:47:38.886Z,7.25
2023-03-20T18:50:06.767Z,7.90
2023-03-20T18:52:33.928Z,8.10
2023-03-20T18:55:01.010Z,8.40
2023-03-20T18:57:28.075Z,8.82
2023-03-20T18:59:55.313Z,8.38
2023-03-20T19:02:22.403Z,8.20
2023-03-20T19:04:49.483Z,8.95
2023-03-20T19:07:16.594Z,8.98
2023-03-20T19:09:43.665Z,8.52
2023-03-20T19:12:10.710Z,8.77
2023-03-20T19:14:37.837Z,9.80
2023-03-20T19:17:05.172Z,9.00
2023-03-20T19:19:32.297Z,9.23
2023-03-20T19:21:59.356Z,8.40
2023-03-20T19:24:26.421Z,8.45
2023-03-20T19:26:56.965Z,8.27
2023-03-20T19:29:24.096Z,8.68
2023-03-20T19:31:51.180Z,8.73
2023-03-20T19:34:51.891Z,8.43
2023-03-20T19:37:05.303Z,8.43
2023-03-20T19:39:32.360Z,9.45
2023-03-20T19:42:15.328Z,9.02
2023-03-20T19:44:46.494Z,8.90
2023-03-20T19:47:13.589Z,8.57
2023-03-20T19:49:40.752Z,10.63
2023-03-20T19:52:10.938Z,10.77
2023-03-20T19:54:41.840Z,10.47
2023-03-20T19:57:14.612Z,15.40
2023-03-20T19:59:44.004Z,10.32
2023-03-20T20:02:11.897Z,9.93
2023-03-20T20:04:38.982Z,9.88
2023-03-20T20:07:47.113Z,8.93
2023-03-20T20:09:53.420Z,9.18
2023-03-20T20:12:20.480Z,8.80
2023-03-20T20:14:47.730Z,9.10
2023-03-20T20:17:14.871Z,8.80
2023-03-20T20:19:41.975Z,9.43
2023-03-20T20:22:24.372Z,8.57
2023-03-20T20:24:52.623Z,10.35
2023-03-20T20:27:19.705Z,9.68
2023-03-20T20:29:47.739Z,9.32
2023-03-20T20:32:14.786Z,9.35
2023-03-20T20:40:18.553Z,9.35
2023-03-20T20:42:47.498Z,9.93
2023-03-20T20:45:15.779Z,9.93
2023-03-20T20:47:46.082Z,9.90
2023-03-20T20:50:13.798Z,8.97
2023-03-20T20:52:41.670Z,9.30
2023-03-20T20:55:22.039Z,10.00
2023-03-20T20:57:50.716Z,9.38
2023-03-20T21:00:18.295Z,9.65
2023-03-20T21:02:45.386Z,8.25
2023-03-20T21:05:13.055Z,8.18
2023-03-20T21:07:42.204Z,9.38
2023-03-20T21:10:09.682Z,9.82
2023-03-20T21:12:51.998Z,9.90
2023-03-20T21:15:24.270Z,10.00
2023-03-20T21:18:00.697Z,10.20
2023-03-20T21:20:28.646Z,9.80
2023-03-20T21:22:55.711Z,11.20
2023-03-20T21:25:38.721Z,10.20
2023-03-20T21:28:06.635Z,10.35
2023-03-20T21:30:33.848Z,10.67
2023-03-20T21:33:01.037Z,10.27
2023-03-20T21:35:28.855Z,10.13
2023-03-20T21:40:43.450Z,10.73
2023-03-20T21:43:11.265Z,10.90
2023-03-20T21:46:23.414Z,9.57
2023-03-20T21:48:58.695Z,10.27
2023-03-20T22:00:14.241Z,11.32
2023-03-20T22:02:26.313Z,11.10
2023-03-20T22:17:08.784Z,12.20
2023-03-20T22:22:22.784Z,11.25
2023-03-20T22:25:11.444Z,11.70
2023-03-20T22:27:55.331Z,12.55
2023-03-20T22:33:49.392Z,13.52
2023-03-20T22:44:47.819Z,14.35
2023-03-20T22:46:51.960Z,14.23
2023-03-20T22:49:19.075Z,15.23
2023-03-20T22:52:03.245Z,14.82
2023-03-20T22:54:33.316Z,14.68
2023-03-20T22:57:01.140Z,13.63
2023-03-20T22:59:28.250Z,13.77
2023-03-20T23:01:55.318Z,13.83
2023-03-20T23:04:22.404Z,13.50
2023-03-20T23:06:49.505Z,15.18
2023-03-20T23:09:16.621Z,14.77
2023-03-20T23:11:43.793Z,14.70
2023-03-20T23:14:20.491Z,14.27
2023-03-20T23:16:48.998Z,15.35
2023-03-20T23:19:16.351Z,13.75
2023-03-20T23:21:43.426Z,14.95
2023-03-20T23:24:10.547Z,14.30
2023-03-20T23:26:37.614Z,15.13
2023-03-20T23:29:05.639Z,16.25
2023-03-20T23:31:32.799Z,15.90
2023-03-20T23:33:59.938Z,16.77
2023-03-20T23:36:42.459Z,15.43
2023-03-20T23:39:10.100Z,15.10
2023-03-20T23:42:02.435Z,16.50
2023-03-20T23:44:24.368Z,16.85
2023-03-20T23:46:51.429Z,15.68
2023-03-20T23:49:18.564Z,16.30
2023-03-20T23:51:45.897Z,15.75
2023-03-20T23:54:13.078Z,16.38
2023-03-20T23:56:40.189Z,15.30
2023-03-20T23:59:18.684Z,15.45
